Sedgwick Reserve, California Weather observations

Data are for 10 minute period ending at time listed.
 Day   Time   Solar   Ave.   Ave.  Ave.  Vector  Max.   Baro.   Total    
  of    of     Rad.   Air    Rel.  Wind   Wind   Wind  Press.  Precip.   
Year   Day            Temp.  Hum.  Speed  Dir.   Gust                    
2026   (PST)  Kw/m2    F      %     mph   deg.    mph    mb.     in.     
-------------------------------------------------------------------------
 128   11:00   0.91   67.4    68    7.6   265    11.0   975.7    0.00 
 128   11:10   0.92   68.8    65    7.9   268    12.7   975.6    0.00 
 128   11:20   0.93   69.7    63    7.7   255    13.1   975.6    0.00 
 128   11:30   0.89   70.2    63    8.9   261    13.5   975.6    0.00 
 128   11:40   0.93   71.4    61    7.3   241    14.2   975.4    0.00 
 128   11:50   0.94   73.0    58    8.5   239    13.2   975.3    0.00 
 128   12:00   0.94   73.1    58    7.5   262    12.6   975.2    0.00 
 128   12:10   0.94   73.8    57    7.3   252    13.3   975.0    0.00 
 128   12:20   0.93   75.8    53    7.3   300    12.8   974.9    0.00 
 128   12:30   0.93   76.2    53    8.7   273    15.3   974.8    0.00 
 128   12:40   0.93   77.0    52    7.8   274    15.6   974.7    0.00 
 128   12:50   0.92   78.0    50   10.1   301    18.5   974.7    0.00 
 128   13:00   0.91   78.0    50   10.2   296    16.1   974.6    0.00 
 128   13:10   0.90   78.3    50   10.0   290    18.0   974.5    0.00 
 128   13:20   0.89   78.3    49   11.3   292    17.9   974.4    0.00 
 128   13:30   0.88   77.3    50   11.9   286    18.2   974.3    0.00 
 128   13:40   0.87   77.6    49   11.9   280    19.7   974.1    0.00 
 128   13:50   0.85   77.2    49   12.5   292    19.7   974.2    0.00 
 128   14:00   0.83   76.5    50   11.2   279    19.1   974.1    0.00 
 128   14:10   0.82   75.9    51   11.7   268    18.3   973.9    0.00 
 128   14:20   0.80   76.1    50   13.0   290    20.5   973.9    0.00 
 128   14:30   0.78   75.9    51   13.7   290    20.0   973.8    0.00 
 128   14:40   0.75   75.9    50   13.4   290    21.2   973.7    0.00 
 128   14:50   0.73   75.5    51   11.5   284    20.5   973.6    0.00 
 128   15:00   0.70   74.6    52   13.3   269    19.8   973.4    0.00 
 128   15:10   0.68   74.3    52   15.9   280    23.3   973.3    0.00 
 128   15:20   0.65   74.1    53   12.8   276    19.7   973.3    0.00 
 128   15:30   0.62   73.7    53   13.2   282    19.4   973.2    0.00 
 128   15:40   0.59   74.1    52   11.3   288    17.7   973.1    0.00 
 128   15:50   0.56   73.8    52   11.5   289    19.4   973.1    0.00 
 128   16:00   0.53   73.3    53    9.2   284    17.9   973.1    0.00 
 128   16:10   0.50   73.6    53   10.7   291    17.2   973.1    0.00 
 128   16:20   0.47   72.4    54    8.5   292    16.1   973.1    0.00 
 128   16:30   0.44   72.8    53    8.3   303    14.7   973.1    0.00 
 128   16:40   0.40   72.3    54    8.9   299    14.8   973.1    0.00 
 128   16:50   0.37   71.1    55   10.1   297    16.0   973.0    0.00 
 128   17:00   0.34   70.5    56    9.7   287    13.7   973.1    0.00 
 128   17:10   0.30   70.8    56    6.3   306    13.3   973.1    0.00 
 128   17:20   0.27   69.5    57    9.0   288    13.8   973.0    0.00 
 128   17:30   0.23   68.8    58    8.1   279    11.0   972.9    0.00 
 128   17:40   0.20   68.3    58    8.3   265    11.1   973.0    0.00 
 128   17:50   0.17   67.5    60    8.4   276    11.8   973.1    0.00 
 128   18:00   0.13   66.9    61    8.3   280    11.3   973.2    0.00 
 128   18:10   0.10   66.4    62    7.3   282    10.3   973.2    0.00 
 128   18:20   0.07   65.8    63    6.1   284     9.7   973.2    0.00 
 128   18:30   0.04   64.8    65    6.7   284     9.4   973.2    0.00 
 128   18:40   0.02   63.5    68    3.6   213     8.1   973.3    0.00 
 128   18:50   0.01   60.8    74    4.1   129     8.2   973.4    0.00 
 128   19:00   0.00   59.0    78    5.2   126     9.2   973.5    0.00 
 128   19:10   0.00   58.0    80    4.1   137     8.4   973.6    0.00 
 128   19:20   0.00   57.1    82    3.8   153     6.4   973.7    0.00 
 128   19:30   0.00   56.5    84    2.8   131     5.3   973.8    0.00 
 128   19:40   0.00   56.0    84    1.2    54     2.1   973.9    0.00 
 128   19:50   0.00   55.4    86    1.3    74     2.3   974.0    0.00 
 128   20:00   0.00   55.0    87    1.0    70     2.1   974.0    0.00 
 128   20:10   0.00   54.7    87    0.6   116     1.3   974.0    0.00 
 128   20:20   0.00   54.1    88    0.7   162     1.8   974.2    0.00 
 128   20:30   0.00   53.3    88    0.6   233     2.0   974.3    0.00 
 128   20:40   0.00   52.8    90    0.9    68     2.6   974.5    0.00 
 128   20:50   0.00   51.9    91    1.7    54     2.6   974.6    0.00 
 128   21:00   0.00   51.9    92    1.5   117     2.4   974.6    0.00 
 128   21:10   0.00   51.2    92    1.5   145     3.2   974.6    0.00 
 128   21:20   0.00   50.5    93    2.1   112     4.2   974.7    0.00 
 128   21:30   0.00   50.1    94    1.8   118     3.9   974.8    0.00 
 128   21:40   0.00   50.2    95    1.9   102     4.1   974.9    0.00 
 128   21:50   0.00   50.2    96    1.1    92     3.6   975.0    0.00 
 128   22:00   0.00   50.3    96    1.7   106     3.3   974.9    0.00 
 128   22:10   0.00   50.5    97    1.2   116     4.0   974.9    0.00 
 128   22:20   0.00   50.8    97    0.9    83     3.1   974.8    0.00 
 128   22:30   0.00   50.8    97    2.0   119     4.9   974.8    0.00 
 128   22:40   0.00   50.7    98    1.7    97     3.6   974.8    0.00 
 128   22:50   0.00   50.8    98    1.0    59     3.1   974.8    0.00 
 128   23:00   0.00   50.5    98    1.2    44     2.6   974.7    0.00 
 128   23:10   0.00   50.4    99    0.8   150     2.7   974.6    0.00 
 128   23:20   0.00   50.3    99    0.7   278     1.8   974.6    0.00 
 128   23:30   0.00   50.4    99    0.9    38     3.7   974.5    0.00 
 128   23:40   0.00   50.3    99    2.2    19     5.1   974.5    0.00 
 128   23:50   0.00   50.0    99    2.8    21     4.7   974.5    0.00 
 129    0:00   0.00   49.9   100    1.8     5     3.7   974.4    0.00 
 129    0:10   0.00   49.8   100    1.9    21     4.7   974.4    0.00 
 129    0:20   0.00   49.7   100    2.2    26     4.4   974.3    0.00 
 129    0:30   0.00   49.4   100    3.4    23     6.2   974.3    0.00 
 129    0:40   0.00   49.0   100    3.0    15     5.5   974.2    0.00 
 129    0:50   0.00   48.7   100    3.2    20     5.7   974.1    0.00 
 129    1:00   0.00   48.9   100    2.7    24     4.0   974.1    0.00 
 129    1:10   0.00   48.9   100    1.1   355     3.5   974.1    0.00 
 129    1:20   0.00   48.8   100    3.1    13     5.4   973.9    0.00 
 129    1:30   0.00   48.5   100    3.0    16     6.2   973.8    0.00 
 129    1:40   0.00   48.4   100    3.3     8     5.9   973.8    0.00 
 129    1:50   0.00   48.2   100    4.1    16     5.9   973.8    0.00 
 129    2:00   0.00   48.1   100    3.9    12     6.6   973.7    0.00 
 129    2:10   0.00   48.2   100    3.7    13     5.0   973.7    0.00 
 129    2:20   0.00   48.3   100    2.8     1     5.7   973.7    0.00 
 129    2:30   0.00   48.3   100    4.1    20     5.8   973.8    0.00 
 129    2:40   0.00   48.3   100    3.7    22     6.0   973.7    0.00 
 129    2:50   0.00   48.4   100    2.1    23     5.2   973.7    0.00 
 129    3:00   0.00   48.2   100    3.5    26     5.0   973.6    0.00 
 129    3:10   0.00   48.1   100    2.8    19     4.7   973.6    0.00 
 129    3:20   0.00   48.0   100    2.8    13     4.9   973.5    0.00 
 129    3:30   0.00   48.2   100    2.4    17     4.7   973.5    0.00 
 129    3:40   0.00   48.3   100    2.6    14     5.3   973.4    0.00 
 129    3:50   0.00   48.3   100    1.9    30     3.9   973.3    0.00 
 129    4:00   0.00   48.4   100    0.9    23     2.5   973.3    0.00 
 129    4:10   0.00   48.5   100    1.0    15     2.8   973.2    0.00 
 129    4:20   0.00   48.5   100    0.9    71     2.5   973.2    0.00 
 129    4:30   0.00   48.4   100    0.9    79     2.5   973.2    0.00 
 129    4:40   0.00   48.2   100    2.0    96     3.1   973.2    0.00 
 129    4:50   0.00   48.1   100    1.0    76     2.9   973.2    0.00 
 129    5:00   0.00   48.0   100    2.3    22     4.7   973.3    0.00 
 129    5:10   0.00   47.4   100    2.9    23     5.5   973.2    0.00 
 129    5:20   0.01   47.1   100    3.2    17     4.6   973.3    0.00 
 129    5:30   0.01   47.0   100    1.7    22     2.7   973.3    0.00 
 129    5:40   0.02   47.2   100    2.1    28     4.6   973.3    0.00 
 129    5:50   0.04   47.5   100    1.8    40     3.9   973.2    0.00 
 129    6:00   0.05   47.9   100    1.7    34     3.2   973.3    0.00 
 129    6:10   0.06   47.9   100    2.2    10     3.6   973.4    0.00 
 129    6:20   0.07   48.1   100    1.8   341     3.7   973.4    0.00 
 129    6:30   0.09   48.2   100    2.3   293     4.5   973.5    0.00 
 129    6:40   0.11   47.9   100    2.4   303     4.7   973.7    0.00 
 129    6:50   0.15   48.5   100    1.2    20     3.4   973.8    0.00 
 129    7:00   0.21   49.6   100    1.0    32     3.3   973.8    0.00 
 129    7:10   0.30   50.1   100    0.5   192     2.3   973.8    0.00 
 129    7:20   0.42   50.8   100    0.9   196     2.9   973.7    0.00 
 129    7:30   0.56   52.2   100    1.2   119     3.5   973.8    0.00 
 129    7:40   0.59   54.1   100    1.5   133     3.9   973.9    0.00 
 129    7:50   0.41   53.1   100    2.5   187     5.3   973.8    0.00 
 129    8:00   0.40   53.4    99    2.0   193     4.5   973.7    0.00 
 129    8:10   0.60   55.0    96    2.4   154     6.3   973.6    0.00 
 129    8:20   0.61   56.5    89    2.9   142     5.7   973.6    0.00 
 129    8:30   0.64   57.9    84    2.9   168     5.8   973.6    0.00 
 129    8:40   0.67   59.7    78    2.0   138     4.6   973.5    0.00 
 129    8:50   0.69   61.2    74    1.6   202     4.8   973.5    0.00 
 129    9:00   0.72   62.8    72    3.5   160     6.9   973.5    0.00 
 129    9:10   0.74   63.7    70    4.2   157     9.3   973.5    0.00 
 129    9:20   0.77   64.6    68    4.5   153     9.0   973.6    0.00 
 129    9:30   0.79   65.5    65    3.7   167     7.2   973.6    0.00 
 129    9:40   0.81   66.5    63    3.2   158     7.4   973.5    0.00 
 129    9:50   0.83   67.9    61    3.9   181     6.1   973.4    0.00 
 129   10:00   0.85   69.5    58    3.6   173     6.9   973.4    0.00 
 129   10:10   0.87   70.5    57    5.0   179     8.2   973.4    0.00 
 129   10:20   0.89   69.9    57    5.2   185     8.7   973.3    0.00 
 129   10:30   0.90   71.2    55    4.6   219     8.9   973.3    0.00 
 129   10:40   0.91   71.8    54    3.7   234     8.9   973.2    0.00 
 129   10:50   0.92   74.0    51    3.7   250     8.0   973.1    0.00 

Return to Sedgwick Reserve graphs page.


Western Regional Climate Center,wrcc@dri.edu